MMMZMMSD

Guest
Details From MMMZ - GENERAL RAFAEL BUELNA INTL
To MMSD - LOS CABOS INTL
Flight Number -
Tags generated
Created
Modified
Stats Distance 191 nm / 354 km
Max Altitude 16,600 ft / 5,060 m
Waypoints 4
Social Downloads 0
Likes 0
Share VATSIM

Download

Looking for another format? Having issues loading an existing format? Contact us
Advertisement - Login to hide

Notes

Basic altitude profile: - Ascent Rate: 2500ft/min - Ascent Speed: 250kts - Cruise Altitude: 35000ft - Cruise Speed: 420kts - Descent Rate: 1500ft/min - Descent Speed: 250kts Options: - Use NATs: no - Use PACOTS: no - Use low airways: yes - Use high airways: no

Route

MMMZ XONKA V1 SJD MMSD

ID Type Via Altitude Latitude Longitude Leg Dist Tot Dist Heading (true) Name
O MMMZ APT - 0 ft / 0 m 23.16136˚ -106.26470˚ - 0 nm - GENERAL RAFAEL BUELNA INTL
XONKA FIX - 16,600 ft / 5,060 m 23.16394˚ -107.10951˚ 46 nm 46 nm 270° / 270° -
SJD VOR V1 (AWY-LO) 10,000 ft / 3,048 m 23.14616˚ -109.72154˚ 144 nm 190 nm 270° / 269° CABOS VOR-DME
O MMSD APT - 0 ft / 0 m 23.15185˚ -109.72104˚ 0 nm 191 nm 5° / 5° LOS CABOS INTL

Altitude Profile

Advertisement - Login to hide

Weather


0- 5 10 15 20 25 30 35+ Temperature / ° C

Clouds and Precipitation
Forecast for 2018-05-24 18:00 UTC. Updated 39 minutes ago

Ground ~20,000 ft ~40,000 ft Winds

MMMZ

Details ICAO MMMZ (MZT)
Name GENERAL RAFAEL BUELNA INTL
Region Mexico
Timezone America/Mazatlan (UTC-6.0)
Stats Elevation 38 ft / 12 m (AMSL)
Location 23.161355° -106.264697°
Runways 1
Magnetic Variation 7.296° E

METAR

MMMZ 241647Z 23005KT 15SM SKC 29/21 A2994 RMK ISOL SC

Decode

TAF

TAF MMMZ 241110Z 2412/2518 03005KT P6SM SKC TX29/2421Z TN16/2412Z FM241600 23010KT P6SM SCT250 FM250200 03005KT P6SM SCT250 FM251600 23010KT P6SM SKC

Decode

Departure Runways

ID Width Length Bearing (true) Bearing (mag) Surface Threshold Offset Overrun Length
08 197 ft / 60 m 8,826 ft / 2,690 m 93.17° 85.87° Asphalt 0 ft / 0 m 175 ft / 53 m
26 197 ft / 60 m 8,826 ft / 2,690 m 273.18° 265.88° Asphalt 0 ft / 0 m 175 ft / 53 m

MMSD

Details ICAO MMSD (SJD)
Name LOS CABOS INTL
Region Mexico
Timezone America/Mazatlan (UTC-6.0)
Stats Elevation 374 ft / 114 m (AMSL)
Location 23.151850° -109.721044°
Runways 1
Magnetic Variation 8.288° E

METAR

MMSD 241645Z 00000KT 12SM SKC 33/04 A2997 RMK CI

Decode

TAF

Not found

Destination Runways

ID Width Length Bearing (true) Bearing (mag) Surface Threshold Offset Overrun Length
16 148 ft / 45 m 9,857 ft / 3,004 m 173.75° 165.46° Asphalt 0 ft / 0 m 215 ft / 66 m
34 148 ft / 45 m 9,857 ft / 3,004 m 353.75° 345.46° Asphalt 0 ft / 0 m 200 ft / 61 m

Popular Alternatives